sensor_id;sensor_type;location;lat;lon;timestamp;P1;durP1;ratioP1;P2;durP2;ratioP2
55732;SDS011;41637;52.364;9.910;2023-06-10T00:00:47;6.50;;;2.90;;
55732;SDS011;41637;52.364;9.910;2023-06-10T00:03:13;6.60;;;3.30;;
55732;SDS011;41637;52.364;9.910;2023-06-10T00:05:40;5.00;;;2.70;;
55732;SDS011;41637;52.364;9.910;2023-06-10T00:08:07;5.10;;;3.00;;
55732;SDS011;41637;52.364;9.910;2023-06-10T00:10:34;6.70;;;3.30;;
55732;SDS011;41637;52.364;9.910;2023-06-10T00:13:02;6.10;;;3.30;;
55732;SDS011;41637;52.364;9.910;2023-06-10T00:15:30;6.40;;;3.20;;
55732;SDS011;41637;52.364;9.910;2023-06-10T00:17:57;6.40;;;3.10;;
55732;SDS011;41637;52.364;9.910;2023-06-10T00:20:24;7.00;;;3.10;;
55732;SDS011;41637;52.364;9.910;2023-06-10T00:22:52;5.40;;;3.20;;
55732;SDS011;41637;52.364;9.910;2023-06-10T00:25:18;6.20;;;2.90;;
55732;SDS011;41637;52.364;9.910;2023-06-10T00:27:45;6.50;;;3.10;;
55732;SDS011;41637;52.364;9.910;2023-06-10T00:30:12;8.30;;;3.20;;
55732;SDS011;41637;52.364;9.910;2023-06-10T00:32:39;6.70;;;3.20;;
55732;SDS011;41637;52.364;9.910;2023-06-10T00:35:06;6.70;;;3.60;;
55732;SDS011;41637;52.364;9.910;2023-06-10T00:37:33;5.50;;;3.60;;
55732;SDS011;41637;52.364;9.910;2023-06-10T00:40:03;7.40;;;3.50;;
55732;SDS011;41637;52.364;9.910;2023-06-10T00:42:30;6.60;;;3.10;;
55732;SDS011;41637;52.364;9.910;2023-06-10T00:44:57;7.80;;;3.50;;
55732;SDS011;41637;52.364;9.910;2023-06-10T00:47:24;8.10;;;3.20;;
55732;SDS011;41637;52.364;9.910;2023-06-10T00:49:52;8.60;;;3.70;;
55732;SDS011;41637;52.364;9.910;2023-06-10T00:52:19;6.80;;;3.40;;
55732;SDS011;41637;52.364;9.910;2023-06-10T00:54:48;6.30;;;3.20;;
55732;SDS011;41637;52.364;9.910;2023-06-10T00:57:15;6.70;;;3.60;;
55732;SDS011;41637;52.364;9.910;2023-06-10T00:59:42;9.80;;;3.50;;
55732;SDS011;41637;52.364;9.910;2023-06-10T01:02:14;8.00;;;4.00;;
55732;SDS011;41637;52.364;9.910;2023-06-10T01:04:40;7.00;;;4.00;;
55732;SDS011;41637;52.364;9.910;2023-06-10T01:07:27;9.10;;;3.70;;
55732;SDS011;41637;52.364;9.910;2023-06-10T01:10:02;7.40;;;3.70;;
55732;SDS011;41637;52.364;9.910;2023-06-10T01:12:56;6.50;;;3.30;;
55732;SDS011;41637;52.364;9.910;2023-06-10T01:15:25;6.90;;;3.80;;
55732;SDS011;41637;52.364;9.910;2023-06-10T01:17:59;7.40;;;3.60;;
55732;SDS011;41637;52.364;9.910;2023-06-10T01:20:32;7.50;;;3.80;;
55732;SDS011;41637;52.364;9.910;2023-06-10T01:22:59;8.10;;;4.00;;
55732;SDS011;41637;52.364;9.910;2023-06-10T01:25:29;9.00;;;4.20;;
55732;SDS011;41637;52.364;9.910;2023-06-10T01:28:04;8.50;;;4.00;;
55732;SDS011;41637;52.364;9.910;2023-06-10T01:30:38;6.70;;;4.20;;
55732;SDS011;41637;52.364;9.910;2023-06-10T01:33:11;9.60;;;4.40;;
55732;SDS011;41637;52.364;9.910;2023-06-10T01:35:43;9.70;;;4.10;;
55732;SDS011;41637;52.364;9.910;2023-06-10T01:38:10;8.00;;;3.70;;
55732;SDS011;41637;52.364;9.910;2023-06-10T01:40:40;9.10;;;4.10;;
55732;SDS011;41637;52.364;9.910;2023-06-10T01:43:08;7.70;;;3.50;;
55732;SDS011;41637;52.364;9.910;2023-06-10T01:45:34;11.20;;;4.30;;
55732;SDS011;41637;52.364;9.910;2023-06-10T01:48:01;8.60;;;4.10;;
55732;SDS011;41637;52.364;9.910;2023-06-10T01:50:28;8.50;;;3.80;;
55732;SDS011;41637;52.364;9.910;2023-06-10T01:52:54;9.90;;;3.90;;
55732;SDS011;41637;52.364;9.910;2023-06-10T01:55:20;9.80;;;4.80;;
55732;SDS011;41637;52.364;9.910;2023-06-10T01:57:47;9.60;;;4.60;;
55732;SDS011;41637;52.364;9.910;2023-06-10T02:00:14;8.80;;;4.70;;
55732;SDS011;41637;52.364;9.910;2023-06-10T02:02:41;9.10;;;4.70;;
55732;SDS011;41637;52.364;9.910;2023-06-10T02:05:08;10.00;;;5.10;;
55732;SDS011;41637;52.364;9.910;2023-06-10T02:07:35;10.00;;;5.40;;
55732;SDS011;41637;52.364;9.910;2023-06-10T02:10:02;11.90;;;6.20;;
55732;SDS011;41637;52.364;9.910;2023-06-10T02:12:29;7.90;;;4.50;;
55732;SDS011;41637;52.364;9.910;2023-06-10T02:14:56;8.30;;;4.90;;
55732;SDS011;41637;52.364;9.910;2023-06-10T02:17:22;10.00;;;4.90;;
55732;SDS011;41637;52.364;9.910;2023-06-10T02:19:49;8.20;;;4.50;;
55732;SDS011;41637;52.364;9.910;2023-06-10T02:22:22;10.70;;;4.80;;
55732;SDS011;41637;52.364;9.910;2023-06-10T02:24:49;9.90;;;4.40;;
55732;SDS011;41637;52.364;9.910;2023-06-10T02:27:16;8.20;;;4.50;;
55732;SDS011;41637;52.364;9.910;2023-06-10T02:29:43;9.80;;;4.80;;
55732;SDS011;41637;52.364;9.910;2023-06-10T02:32:10;11.10;;;5.10;;
55732;SDS011;41637;52.364;9.910;2023-06-10T02:34:37;11.20;;;5.20;;
55732;SDS011;41637;52.364;9.910;2023-06-10T02:37:04;9.40;;;5.20;;
55732;SDS011;41637;52.364;9.910;2023-06-10T02:39:30;9.80;;;5.40;;
55732;SDS011;41637;52.364;9.910;2023-06-10T02:41:57;11.10;;;5.60;;
55732;SDS011;41637;52.364;9.910;2023-06-10T02:44:23;12.70;;;5.60;;
55732;SDS011;41637;52.364;9.910;2023-06-10T02:46:50;11.10;;;5.20;;
55732;SDS011;41637;52.364;9.910;2023-06-10T02:49:16;10.50;;;5.50;;
55732;SDS011;41637;52.364;9.910;2023-06-10T02:51:44;11.50;;;5.30;;
55732;SDS011;41637;52.364;9.910;2023-06-10T02:54:10;9.80;;;5.30;;
55732;SDS011;41637;52.364;9.910;2023-06-10T02:56:37;13.30;;;6.00;;
55732;SDS011;41637;52.364;9.910;2023-06-10T02:59:03;10.20;;;5.40;;
55732;SDS011;41637;52.364;9.910;2023-06-10T03:01:30;11.50;;;5.60;;
55732;SDS011;41637;52.364;9.910;2023-06-10T03:03:58;9.10;;;5.40;;
55732;SDS011;41637;52.364;9.910;2023-06-10T03:06:25;11.10;;;5.40;;
55732;SDS011;41637;52.364;9.910;2023-06-10T03:08:52;10.10;;;5.90;;
55732;SDS011;41637;52.364;9.910;2023-06-10T03:11:19;10.60;;;5.60;;
55732;SDS011;41637;52.364;9.910;2023-06-10T03:13:45;11.40;;;5.50;;
55732;SDS011;41637;52.364;9.910;2023-06-10T03:16:12;9.80;;;5.80;;
55732;SDS011;41637;52.364;9.910;2023-06-10T03:18:39;13.30;;;5.50;;
55732;SDS011;41637;52.364;9.910;2023-06-10T03:21:06;11.00;;;5.70;;
55732;SDS011;41637;52.364;9.910;2023-06-10T03:23:32;9.70;;;5.40;;
55732;SDS011;41637;52.364;9.910;2023-06-10T03:25:59;13.20;;;5.90;;
55732;SDS011;41637;52.364;9.910;2023-06-10T03:28:26;11.60;;;6.00;;
55732;SDS011;41637;52.364;9.910;2023-06-10T03:30:53;12.30;;;6.50;;
55732;SDS011;41637;52.364;9.910;2023-06-10T03:33:19;12.90;;;5.90;;
55732;SDS011;41637;52.364;9.910;2023-06-10T03:35:46;12.20;;;6.00;;
55732;SDS011;41637;52.364;9.910;2023-06-10T03:38:13;11.80;;;5.90;;
55732;SDS011;41637;52.364;9.910;2023-06-10T03:40:40;11.50;;;6.00;;
55732;SDS011;41637;52.364;9.910;2023-06-10T03:43:06;11.90;;;6.20;;
55732;SDS011;41637;52.364;9.910;2023-06-10T03:45:33;12.40;;;6.10;;
55732;SDS011;41637;52.364;9.910;2023-06-10T03:48:01;12.90;;;7.00;;
55732;SDS011;41637;52.364;9.910;2023-06-10T03:50:29;13.70;;;6.40;;
55732;SDS011;41637;52.364;9.910;2023-06-10T03:52:57;10.00;;;6.00;;
55732;SDS011;41637;52.364;9.910;2023-06-10T03:55:24;13.00;;;6.40;;
55732;SDS011;41637;52.364;9.910;2023-06-10T03:57:51;14.90;;;5.90;;
55732;SDS011;41637;52.364;9.910;2023-06-10T04:00:17;10.80;;;6.60;;
55732;SDS011;41637;52.364;9.910;2023-06-10T04:02:47;11.30;;;6.00;;
55732;SDS011;41637;52.364;9.910;2023-06-10T04:05:19;10.00;;;6.20;;
55732;SDS011;41637;52.364;9.910;2023-06-10T04:07:48;11.40;;;6.60;;
55732;SDS011;41637;52.364;9.910;2023-06-10T04:10:14;13.90;;;6.50;;
55732;SDS011;41637;52.364;9.910;2023-06-10T04:12:41;11.30;;;6.30;;
55732;SDS011;41637;52.364;9.910;2023-06-10T04:15:08;10.40;;;5.90;;
55732;SDS011;41637;52.364;9.910;2023-06-10T04:17:36;11.90;;;6.10;;
55732;SDS011;41637;52.364;9.910;2023-06-10T04:20:02;11.00;;;6.10;;
55732;SDS011;41637;52.364;9.910;2023-06-10T04:22:32;14.70;;;6.40;;
55732;SDS011;41637;52.364;9.910;2023-06-10T04:24:59;10.60;;;6.10;;
55732;SDS011;41637;52.364;9.910;2023-06-10T04:27:25;10.00;;;5.80;;
55732;SDS011;41637;52.364;9.910;2023-06-10T04:29:52;9.80;;;5.70;;
55732;SDS011;41637;52.364;9.910;2023-06-10T04:32:18;9.90;;;6.10;;
55732;SDS011;41637;52.364;9.910;2023-06-10T04:34:45;10.40;;;5.50;;
55732;SDS011;41637;52.364;9.910;2023-06-10T04:37:11;10.80;;;5.60;;
55732;SDS011;41637;52.364;9.910;2023-06-10T04:39:38;8.90;;;5.00;;
55732;SDS011;41637;52.364;9.910;2023-06-10T04:42:04;12.50;;;5.90;;
55732;SDS011;41637;52.364;9.910;2023-06-10T04:44:31;11.50;;;5.60;;
55732;SDS011;41637;52.364;9.910;2023-06-10T04:46:58;9.10;;;5.70;;
55732;SDS011;41637;52.364;9.910;2023-06-10T04:49:25;9.30;;;5.50;;
55732;SDS011;41637;52.364;9.910;2023-06-10T04:51:51;11.40;;;6.00;;
55732;SDS011;41637;52.364;9.910;2023-06-10T04:54:18;11.40;;;5.40;;
55732;SDS011;41637;52.364;9.910;2023-06-10T04:56:44;9.60;;;5.00;;
55732;SDS011;41637;52.364;9.910;2023-06-10T04:59:11;10.70;;;5.00;;
55732;SDS011;41637;52.364;9.910;2023-06-10T05:01:37;10.00;;;5.20;;
55732;SDS011;41637;52.364;9.910;2023-06-10T05:04:04;12.90;;;5.30;;
55732;SDS011;41637;52.364;9.910;2023-06-10T05:06:31;10.30;;;4.90;;
55732;SDS011;41637;52.364;9.910;2023-06-10T05:08:57;9.60;;;5.10;;
55732;SDS011;41637;52.364;9.910;2023-06-10T05:11:24;14.90;;;5.10;;
55732;SDS011;41637;52.364;9.910;2023-06-10T05:13:50;9.20;;;5.00;;
55732;SDS011;41637;52.364;9.910;2023-06-10T05:16:17;7.90;;;4.50;;
55732;SDS011;41637;52.364;9.910;2023-06-10T05:18:44;8.80;;;4.80;;
55732;SDS011;41637;52.364;9.910;2023-06-10T05:21:10;9.90;;;4.60;;
55732;SDS011;41637;52.364;9.910;2023-06-10T05:23:37;10.10;;;4.70;;
55732;SDS011;41637;52.364;9.910;2023-06-10T05:26:04;9.90;;;4.90;;
55732;SDS011;41637;52.364;9.910;2023-06-10T05:28:30;9.70;;;4.80;;
55732;SDS011;41637;52.364;9.910;2023-06-10T05:30:57;8.90;;;5.10;;
55732;SDS011;41637;52.364;9.910;2023-06-10T05:33:23;9.30;;;4.70;;
55732;SDS011;41637;52.364;9.910;2023-06-10T05:35:50;10.20;;;4.80;;
55732;SDS011;41637;52.364;9.910;2023-06-10T05:38:16;11.30;;;4.50;;
55732;SDS011;41637;52.364;9.910;2023-06-10T05:40:43;9.50;;;5.00;;
55732;SDS011;41637;52.364;9.910;2023-06-10T05:43:09;9.80;;;4.80;;
55732;SDS011;41637;52.364;9.910;2023-06-10T05:45:37;9.30;;;4.60;;
55732;SDS011;41637;52.364;9.910;2023-06-10T05:48:04;11.00;;;4.70;;
55732;SDS011;41637;52.364;9.910;2023-06-10T05:50:31;9.80;;;5.00;;
55732;SDS011;41637;52.364;9.910;2023-06-10T05:53:01;10.10;;;5.20;;
55732;SDS011;41637;52.364;9.910;2023-06-10T05:55:27;9.30;;;4.30;;
55732;SDS011;41637;52.364;9.910;2023-06-10T05:58:00;9.90;;;4.70;;
55732;SDS011;41637;52.364;9.910;2023-06-10T06:00:27;9.40;;;4.40;;
55732;SDS011;41637;52.364;9.910;2023-06-10T06:02:53;9.30;;;4.30;;
55732;SDS011;41637;52.364;9.910;2023-06-10T06:05:20;9.70;;;4.40;;
55732;SDS011;41637;52.364;9.910;2023-06-10T06:07:47;9.00;;;4.40;;
55732;SDS011;41637;52.364;9.910;2023-06-10T06:10:16;10.60;;;4.30;;
55732;SDS011;41637;52.364;9.910;2023-06-10T06:12:44;10.50;;;4.50;;
55732;SDS011;41637;52.364;9.910;2023-06-10T06:15:11;9.20;;;4.30;;
55732;SDS011;41637;52.364;9.910;2023-06-10T06:17:38;8.30;;;4.30;;
55732;SDS011;41637;52.364;9.910;2023-06-10T06:20:05;7.40;;;4.10;;
55732;SDS011;41637;52.364;9.910;2023-06-10T06:22:32;6.60;;;4.00;;
55732;SDS011;41637;52.364;9.910;2023-06-10T06:24:58;12.40;;;4.30;;
55732;SDS011;41637;52.364;9.910;2023-06-10T06:27:25;8.40;;;4.40;;
55732;SDS011;41637;52.364;9.910;2023-06-10T06:29:52;11.10;;;4.30;;
55732;SDS011;41637;52.364;9.910;2023-06-10T06:32:18;9.80;;;4.80;;
55732;SDS011;41637;52.364;9.910;2023-06-10T06:34:45;10.80;;;4.30;;
55732;SDS011;41637;52.364;9.910;2023-06-10T06:37:12;9.40;;;4.10;;
55732;SDS011;41637;52.364;9.910;2023-06-10T06:39:38;8.40;;;4.40;;
55732;SDS011;41637;52.364;9.910;2023-06-10T06:42:05;8.40;;;4.30;;
55732;SDS011;41637;52.364;9.910;2023-06-10T06:44:32;8.40;;;4.30;;
55732;SDS011;41637;52.364;9.910;2023-06-10T06:46:58;7.40;;;4.20;;
55732;SDS011;41637;52.364;9.910;2023-06-10T06:49:25;8.40;;;3.80;;
55732;SDS011;41637;52.364;9.910;2023-06-10T06:51:51;8.90;;;4.10;;
55732;SDS011;41637;52.364;9.910;2023-06-10T06:54:18;9.70;;;4.00;;
55732;SDS011;41637;52.364;9.910;2023-06-10T06:56:45;10.80;;;4.70;;
55732;SDS011;41637;52.364;9.910;2023-06-10T06:59:12;8.70;;;4.30;;
55732;SDS011;41637;52.364;9.910;2023-06-10T07:01:40;8.70;;;3.80;;
55732;SDS011;41637;52.364;9.910;2023-06-10T07:04:06;9.30;;;4.40;;
55732;SDS011;41637;52.364;9.910;2023-06-10T07:06:33;10.10;;;4.10;;
55732;SDS011;41637;52.364;9.910;2023-06-10T07:09:04;8.60;;;4.00;;
55732;SDS011;41637;52.364;9.910;2023-06-10T07:11:31;8.90;;;4.40;;
55732;SDS011;41637;52.364;9.910;2023-06-10T07:13:57;9.90;;;4.50;;
55732;SDS011;41637;52.364;9.910;2023-06-10T07:16:23;8.70;;;4.20;;
55732;SDS011;41637;52.364;9.910;2023-06-10T07:18:50;7.60;;;4.10;;
55732;SDS011;41637;52.364;9.910;2023-06-10T07:21:16;7.90;;;4.20;;
55732;SDS011;41637;52.364;9.910;2023-06-10T07:23:43;7.60;;;4.40;;
55732;SDS011;41637;52.364;9.910;2023-06-10T07:26:11;9.60;;;4.20;;
55732;SDS011;41637;52.364;9.910;2023-06-10T07:28:40;8.10;;;4.00;;
55732;SDS011;41637;52.364;9.910;2023-06-10T07:31:07;10.20;;;4.50;;
55732;SDS011;41637;52.364;9.910;2023-06-10T07:33:34;8.40;;;4.40;;
55732;SDS011;41637;52.364;9.910;2023-06-10T07:36:01;7.70;;;4.30;;
55732;SDS011;41637;52.364;9.910;2023-06-10T07:38:27;7.80;;;4.10;;
55732;SDS011;41637;52.364;9.910;2023-06-10T07:40:53;7.20;;;4.30;;
55732;SDS011;41637;52.364;9.910;2023-06-10T07:43:20;9.00;;;4.40;;
55732;SDS011;41637;52.364;9.910;2023-06-10T07:45:46;10.40;;;4.30;;
55732;SDS011;41637;52.364;9.910;2023-06-10T07:48:13;8.70;;;4.40;;
55732;SDS011;41637;52.364;9.910;2023-06-10T07:50:39;9.40;;;3.90;;
55732;SDS011;41637;52.364;9.910;2023-06-10T07:53:06;8.90;;;4.60;;
55732;SDS011;41637;52.364;9.910;2023-06-10T07:55:33;9.70;;;4.70;;
55732;SDS011;41637;52.364;9.910;2023-06-10T07:57:59;8.20;;;4.50;;
55732;SDS011;41637;52.364;9.910;2023-06-10T08:00:26;8.80;;;4.30;;
55732;SDS011;41637;52.364;9.910;2023-06-10T08:02:52;11.10;;;4.10;;
55732;SDS011;41637;52.364;9.910;2023-06-10T08:05:19;10.30;;;4.30;;
55732;SDS011;41637;52.364;9.910;2023-06-10T08:07:47;10.40;;;4.90;;
55732;SDS011;41637;52.364;9.910;2023-06-10T08:10:13;8.30;;;4.00;;
55732;SDS011;41637;52.364;9.910;2023-06-10T08:12:40;10.10;;;4.30;;
55732;SDS011;41637;52.364;9.910;2023-06-10T08:15:06;8.00;;;4.70;;
55732;SDS011;41637;52.364;9.910;2023-06-10T08:17:34;10.80;;;4.30;;
55732;SDS011;41637;52.364;9.910;2023-06-10T08:20:01;8.20;;;4.00;;
55732;SDS011;41637;52.364;9.910;2023-06-10T08:22:28;8.90;;;4.00;;
55732;SDS011;41637;52.364;9.910;2023-06-10T08:24:55;8.00;;;4.20;;
55732;SDS011;41637;52.364;9.910;2023-06-10T08:27:22;9.60;;;4.20;;
55732;SDS011;41637;52.364;9.910;2023-06-10T08:29:48;6.40;;;4.10;;
55732;SDS011;41637;52.364;9.910;2023-06-10T08:32:15;7.20;;;3.80;;
55732;SDS011;41637;52.364;9.910;2023-06-10T08:34:41;12.80;;;4.10;;
55732;SDS011;41637;52.364;9.910;2023-06-10T08:37:08;9.50;;;3.60;;
55732;SDS011;41637;52.364;9.910;2023-06-10T08:39:34;8.50;;;3.70;;
55732;SDS011;41637;52.364;9.910;2023-06-10T08:44:46;7.50;;;3.60;;
55732;SDS011;41637;52.364;9.910;2023-06-10T08:47:14;6.50;;;3.40;;
55732;SDS011;41637;52.364;9.910;2023-06-10T08:49:43;6.30;;;3.90;;
55732;SDS011;41637;52.364;9.910;2023-06-10T08:52:19;6.90;;;3.60;;
55732;SDS011;41637;52.364;9.910;2023-06-10T08:54:54;7.40;;;3.50;;
55732;SDS011;41637;52.364;9.910;2023-06-10T08:57:25;7.00;;;3.40;;
55732;SDS011;41637;52.364;9.910;2023-06-10T08:59:53;7.90;;;3.60;;
55732;SDS011;41637;52.364;9.910;2023-06-10T09:02:21;8.80;;;3.60;;
55732;SDS011;41637;52.364;9.910;2023-06-10T09:04:48;7.60;;;3.50;;
55732;SDS011;41637;52.364;9.910;2023-06-10T09:07:15;8.00;;;3.50;;
55732;SDS011;41637;52.364;9.910;2023-06-10T09:09:43;6.70;;;3.50;;
55732;SDS011;41637;52.364;9.910;2023-06-10T09:12:13;6.00;;;3.40;;
55732;SDS011;41637;52.364;9.910;2023-06-10T09:14:43;7.30;;;3.70;;
55732;SDS011;41637;52.364;9.910;2023-06-10T09:17:10;7.20;;;3.70;;
55732;SDS011;41637;52.364;9.910;2023-06-10T09:19:37;6.10;;;3.10;;
55732;SDS011;41637;52.364;9.910;2023-06-10T09:22:06;8.70;;;3.50;;
55732;SDS011;41637;52.364;9.910;2023-06-10T09:24:32;8.40;;;3.50;;
55732;SDS011;41637;52.364;9.910;2023-06-10T09:27:03;7.70;;;3.70;;
55732;SDS011;41637;52.364;9.910;2023-06-10T09:29:46;9.00;;;3.50;;
55732;SDS011;41637;52.364;9.910;2023-06-10T09:32:14;6.10;;;3.50;;
55732;SDS011;41637;52.364;9.910;2023-06-10T09:34:43;7.60;;;3.60;;
55732;SDS011;41637;52.364;9.910;2023-06-10T09:37:10;9.30;;;3.50;;
55732;SDS011;41637;52.364;9.910;2023-06-10T09:39:38;7.10;;;3.30;;
55732;SDS011;41637;52.364;9.910;2023-06-10T09:42:27;6.60;;;3.50;;
55732;SDS011;41637;52.364;9.910;2023-06-10T09:44:52;7.40;;;3.30;;
55732;SDS011;41637;52.364;9.910;2023-06-10T09:47:21;7.30;;;3.50;;
55732;SDS011;41637;52.364;9.910;2023-06-10T09:49:49;8.40;;;3.40;;
55732;SDS011;41637;52.364;9.910;2023-06-10T09:52:23;8.00;;;3.20;;
55732;SDS011;41637;52.364;9.910;2023-06-10T09:54:51;12.40;;;4.40;;
55732;SDS011;41637;52.364;9.910;2023-06-10T09:57:19;8.50;;;3.40;;
55732;SDS011;41637;52.364;9.910;2023-06-10T09:59:47;8.30;;;3.40;;
55732;SDS011;41637;52.364;9.910;2023-06-10T10:02:16;6.90;;;3.30;;
55732;SDS011;41637;52.364;9.910;2023-06-10T10:04:43;6.40;;;3.40;;
55732;SDS011;41637;52.364;9.910;2023-06-10T10:07:10;8.50;;;3.20;;
55732;SDS011;41637;52.364;9.910;2023-06-10T10:09:38;8.70;;;3.40;;
55732;SDS011;41637;52.364;9.910;2023-06-10T10:12:12;7.70;;;3.40;;
55732;SDS011;41637;52.364;9.910;2023-06-10T10:14:46;6.50;;;3.50;;
55732;SDS011;41637;52.364;9.910;2023-06-10T10:17:16;5.70;;;3.40;;
55732;SDS011;41637;52.364;9.910;2023-06-10T10:19:46;6.80;;;3.40;;
55732;SDS011;41637;52.364;9.910;2023-06-10T10:22:18;5.90;;;3.20;;
55732;SDS011;41637;52.364;9.910;2023-06-10T10:24:53;8.70;;;3.50;;
55732;SDS011;41637;52.364;9.910;2023-06-10T10:27:27;6.80;;;3.20;;
55732;SDS011;41637;52.364;9.910;2023-06-10T10:29:54;7.90;;;3.50;;
55732;SDS011;41637;52.364;9.910;2023-06-10T10:32:35;8.80;;;3.90;;
55732;SDS011;41637;52.364;9.910;2023-06-10T10:37:43;6.40;;;3.60;;
55732;SDS011;41637;52.364;9.910;2023-06-10T10:40:10;7.10;;;3.30;;
55732;SDS011;41637;52.364;9.910;2023-06-10T10:42:37;7.10;;;4.10;;
55732;SDS011;41637;52.364;9.910;2023-06-10T10:45:06;7.70;;;3.60;;
55732;SDS011;41637;52.364;9.910;2023-06-10T10:47:34;6.50;;;3.30;;
55732;SDS011;41637;52.364;9.910;2023-06-10T10:50:12;7.30;;;3.70;;
55732;SDS011;41637;52.364;9.910;2023-06-10T10:55:21;7.20;;;3.40;;
55732;SDS011;41637;52.364;9.910;2023-06-10T11:02:59;7.60;;;3.50;;
55732;SDS011;41637;52.364;9.910;2023-06-10T11:05:37;7.80;;;3.90;;
55732;SDS011;41637;52.364;9.910;2023-06-10T11:08:13;5.10;;;3.40;;
55732;SDS011;41637;52.364;9.910;2023-06-10T11:11:00;8.70;;;3.90;;
55732;SDS011;41637;52.364;9.910;2023-06-10T11:13:43;5.60;;;3.30;;
55732;SDS011;41637;52.364;9.910;2023-06-10T11:16:25;7.50;;;3.80;;
55732;SDS011;41637;52.364;9.910;2023-06-10T11:18:55;8.60;;;3.70;;
55732;SDS011;41637;52.364;9.910;2023-06-10T11:21:23;7.80;;;3.60;;
55732;SDS011;41637;52.364;9.910;2023-06-10T11:23:57;7.30;;;3.90;;
55732;SDS011;41637;52.364;9.910;2023-06-10T11:31:29;7.40;;;3.90;;
55732;SDS011;41637;52.364;9.910;2023-06-10T11:33:57;7.60;;;3.80;;
55732;SDS011;41637;52.364;9.910;2023-06-10T11:36:24;5.80;;;3.60;;
55732;SDS011;41637;52.364;9.910;2023-06-10T11:38:56;7.50;;;3.80;;
55732;SDS011;41637;52.364;9.910;2023-06-10T11:41:27;6.80;;;4.10;;
55732;SDS011;41637;52.364;9.910;2023-06-10T11:43:55;6.90;;;3.70;;
55732;SDS011;41637;52.364;9.910;2023-06-10T11:46:23;6.90;;;3.70;;
55732;SDS011;41637;52.364;9.910;2023-06-10T11:48:53;7.20;;;3.80;;
55732;SDS011;41637;52.364;9.910;2023-06-10T11:51:21;6.30;;;3.70;;
55732;SDS011;41637;52.364;9.910;2023-06-10T11:53:48;6.90;;;3.90;;
55732;SDS011;41637;52.364;9.910;2023-06-10T11:56:22;6.90;;;4.00;;
55732;SDS011;41637;52.364;9.910;2023-06-10T11:58:57;7.40;;;3.60;;
55732;SDS011;41637;52.364;9.910;2023-06-10T12:01:37;5.80;;;3.80;;
55732;SDS011;41637;52.364;9.910;2023-06-10T12:04:10;6.60;;;3.50;;
55732;SDS011;41637;52.364;9.910;2023-06-10T12:06:39;7.30;;;3.80;;
55732;SDS011;41637;52.364;9.910;2023-06-10T12:09:41;5.60;;;3.50;;
55732;SDS011;41637;52.364;9.910;2023-06-10T12:12:01;6.30;;;3.70;;
55732;SDS011;41637;52.364;9.910;2023-06-10T12:17:21;6.80;;;3.60;;
55732;SDS011;41637;52.364;9.910;2023-06-10T12:20:08;7.50;;;3.40;;
55732;SDS011;41637;52.364;9.910;2023-06-10T12:22:50;5.90;;;3.50;;
55732;SDS011;41637;52.364;9.910;2023-06-10T12:25:16;5.20;;;3.40;;
55732;SDS011;41637;52.364;9.910;2023-06-10T12:27:52;11.10;;;3.30;;
55732;SDS011;41637;52.364;9.910;2023-06-10T12:30:20;6.30;;;3.60;;
55732;SDS011;41637;52.364;9.910;2023-06-10T12:32:48;5.90;;;3.30;;
55732;SDS011;41637;52.364;9.910;2023-06-10T12:35:17;7.10;;;3.40;;
55732;SDS011;41637;52.364;9.910;2023-06-10T12:37:56;5.40;;;3.20;;
55732;SDS011;41637;52.364;9.910;2023-06-10T12:40:30;6.10;;;3.70;;
55732;SDS011;41637;52.364;9.910;2023-06-10T12:42:59;5.60;;;3.50;;
55732;SDS011;41637;52.364;9.910;2023-06-10T12:45:26;6.30;;;3.50;;
55732;SDS011;41637;52.364;9.910;2023-06-10T12:50:36;5.80;;;3.30;;
55732;SDS011;41637;52.364;9.910;2023-06-10T12:53:07;6.10;;;3.20;;
55732;SDS011;41637;52.364;9.910;2023-06-10T12:55:34;7.80;;;3.20;;
55732;SDS011;41637;52.364;9.910;2023-06-10T12:58:01;6.10;;;3.10;;
55732;SDS011;41637;52.364;9.910;2023-06-10T13:00:28;6.60;;;3.20;;
55732;SDS011;41637;52.364;9.910;2023-06-10T13:02:56;6.20;;;3.20;;
55732;SDS011;41637;52.364;9.910;2023-06-10T13:05:24;6.60;;;3.20;;
55732;SDS011;41637;52.364;9.910;2023-06-10T13:07:50;5.50;;;3.60;;
55732;SDS011;41637;52.364;9.910;2023-06-10T13:10:17;5.20;;;3.30;;
55732;SDS011;41637;52.364;9.910;2023-06-10T13:12:47;7.30;;;3.10;;
55732;SDS011;41637;52.364;9.910;2023-06-10T13:15:14;6.30;;;3.30;;
55732;SDS011;41637;52.364;9.910;2023-06-10T13:17:41;8.70;;;3.60;;
55732;SDS011;41637;52.364;9.910;2023-06-10T13:20:09;4.70;;;3.10;;
55732;SDS011;41637;52.364;9.910;2023-06-10T13:22:37;4.70;;;3.20;;
55732;SDS011;41637;52.364;9.910;2023-06-10T13:25:03;7.80;;;3.30;;
55732;SDS011;41637;52.364;9.910;2023-06-10T13:27:31;6.50;;;2.90;;
55732;SDS011;41637;52.364;9.910;2023-06-10T13:29:57;4.60;;;3.50;;
55732;SDS011;41637;52.364;9.910;2023-06-10T13:32:24;5.00;;;3.30;;
55732;SDS011;41637;52.364;9.910;2023-06-10T13:34:51;6.20;;;3.30;;
55732;SDS011;41637;52.364;9.910;2023-06-10T13:37:17;5.30;;;3.30;;
55732;SDS011;41637;52.364;9.910;2023-06-10T13:39:44;5.50;;;3.10;;
55732;SDS011;41637;52.364;9.910;2023-06-10T13:42:14;6.70;;;3.20;;
55732;SDS011;41637;52.364;9.910;2023-06-10T13:44:41;5.80;;;3.20;;
55732;SDS011;41637;52.364;9.910;2023-06-10T13:47:08;4.40;;;3.00;;
55732;SDS011;41637;52.364;9.910;2023-06-10T13:49:34;5.50;;;3.30;;
55732;SDS011;41637;52.364;9.910;2023-06-10T13:52:02;4.90;;;3.40;;
55732;SDS011;41637;52.364;9.910;2023-06-10T13:54:29;6.10;;;3.00;;
55732;SDS011;41637;52.364;9.910;2023-06-10T13:56:56;5.60;;;3.00;;
55732;SDS011;41637;52.364;9.910;2023-06-10T13:59:22;7.10;;;3.40;;
55732;SDS011;41637;52.364;9.910;2023-06-10T14:01:48;7.50;;;3.10;;
55732;SDS011;41637;52.364;9.910;2023-06-10T14:04:15;5.10;;;3.30;;
55732;SDS011;41637;52.364;9.910;2023-06-10T14:06:42;5.30;;;3.30;;
55732;SDS011;41637;52.364;9.910;2023-06-10T14:09:08;7.00;;;3.40;;
55732;SDS011;41637;52.364;9.910;2023-06-10T14:11:35;4.70;;;3.00;;
55732;SDS011;41637;52.364;9.910;2023-06-10T14:14:01;5.40;;;3.10;;
55732;SDS011;41637;52.364;9.910;2023-06-10T14:16:28;7.20;;;3.30;;
55732;SDS011;41637;52.364;9.910;2023-06-10T14:18:54;6.10;;;3.50;;
55732;SDS011;41637;52.364;9.910;2023-06-10T14:21:21;6.40;;;3.00;;
55732;SDS011;41637;52.364;9.910;2023-06-10T14:23:48;5.60;;;3.00;;
55732;SDS011;41637;52.364;9.910;2023-06-10T14:26:15;4.50;;;3.00;;
55732;SDS011;41637;52.364;9.910;2023-06-10T14:28:42;6.30;;;2.90;;
55732;SDS011;41637;52.364;9.910;2023-06-10T14:31:08;4.90;;;3.30;;
55732;SDS011;41637;52.364;9.910;2023-06-10T14:33:35;5.50;;;3.00;;
55732;SDS011;41637;52.364;9.910;2023-06-10T14:36:01;5.30;;;3.10;;
55732;SDS011;41637;52.364;9.910;2023-06-10T14:38:28;8.10;;;3.30;;
55732;SDS011;41637;52.364;9.910;2023-06-10T14:40:54;5.40;;;3.10;;
55732;SDS011;41637;52.364;9.910;2023-06-10T14:43:21;4.90;;;2.90;;
55732;SDS011;41637;52.364;9.910;2023-06-10T14:45:47;5.00;;;3.10;;
55732;SDS011;41637;52.364;9.910;2023-06-10T14:48:14;5.30;;;3.20;;
55732;SDS011;41637;52.364;9.910;2023-06-10T14:50:40;4.80;;;3.00;;
55732;SDS011;41637;52.364;9.910;2023-06-10T14:53:11;5.10;;;3.00;;
55732;SDS011;41637;52.364;9.910;2023-06-10T14:55:37;4.80;;;3.00;;
55732;SDS011;41637;52.364;9.910;2023-06-10T14:58:04;7.00;;;3.10;;
55732;SDS011;41637;52.364;9.910;2023-06-10T15:00:30;5.00;;;3.00;;
55732;SDS011;41637;52.364;9.910;2023-06-10T15:02:57;7.30;;;3.00;;
55732;SDS011;41637;52.364;9.910;2023-06-10T15:05:24;5.40;;;3.20;;
55732;SDS011;41637;52.364;9.910;2023-06-10T15:07:51;4.70;;;2.90;;
55732;SDS011;41637;52.364;9.910;2023-06-10T15:10:17;3.70;;;2.80;;
55732;SDS011;41637;52.364;9.910;2023-06-10T15:12:47;4.50;;;2.70;;
55732;SDS011;41637;52.364;9.910;2023-06-10T15:15:24;4.20;;;2.70;;